Time;durP1;ratioP1;P1;durP2;ratioP2;P2;SDS_P1;SDS_P2;PMS_P1;PMS_P2;Temp;Humidity;BMP_temperature;BMP_pressure;BME280_temperature;BME280_humidity;BME280_pressure;Samples;Min_cycle;Max_cycle;Signal;HPM_P1;HPM_P2
2022/11/21 00:00:05;;;;;;;2.70;0.70;;;6.90;99.90;;;;;;5060657;28;20028;-74
2022/11/21 00:02:31;;;;;;;1.87;0.40;;;6.90;99.90;;;;;;5069994;28;20062;-74
2022/11/21 00:04:57;;;;;;;2.60;1.00;;;6.90;99.90;;;;;;5053707;28;20064;-73
2022/11/21 00:07:22;;;;;;;2.13;0.53;;;6.80;99.90;;;;;;5053649;28;20481;-73
2022/11/21 00:09:48;;;;;;;1.67;0.60;;;6.80;99.90;;;;;;5052572;28;20444;-74
2022/11/21 00:12:15;;;;;;;2.57;0.53;;;6.90;99.90;;;;;;5053034;28;20095;-73
2022/11/21 00:14:41;;;;;;;3.37;1.13;;;6.90;99.90;;;;;;5054156;28;20025;-76
2022/11/21 00:17:07;;;;;;;3.50;0.70;;;6.80;99.90;;;;;;5053140;28;20032;-73
2022/11/21 00:19:32;;;;;;;1.40;0.80;;;6.90;99.90;;;;;;5053351;28;20025;-74
2022/11/21 00:21:58;;;;;;;0.80;0.50;;;6.90;99.90;;;;;;5053817;28;20473;-73
2022/11/21 00:24:23;;;;;;;1.77;0.67;;;6.90;99.90;;;;;;5054756;28;20395;-73
2022/11/21 00:26:49;;;;;;;3.20;0.90;;;6.90;99.90;;;;;;5053905;28;20060;-73
2022/11/21 00:29:15;;;;;;;1.47;0.73;;;6.90;99.90;;;;;;5054255;28;20452;-73
2022/11/21 00:31:40;;;;;;;3.13;0.60;;;6.90;99.90;;;;;;5053071;28;20111;-75
2022/11/21 00:34:06;;;;;;;1.90;0.87;;;6.90;99.90;;;;;;5053571;28;20039;-73
2022/11/21 00:36:31;;;;;;;3.00;0.60;;;7.00;99.90;;;;;;5054291;28;20461;-73
2022/11/21 00:38:57;;;;;;;1.10;0.70;;;6.90;99.90;;;;;;5052853;28;20028;-73
2022/11/21 00:41:22;;;;;;;4.40;0.77;;;7.00;99.90;;;;;;5054288;28;20048;-73
2022/11/21 00:43:48;;;;;;;2.73;0.83;;;7.00;99.90;;;;;;5054023;28;20055;-73
2022/11/21 00:46:13;;;;;;;3.77;0.70;;;7.00;99.90;;;;;;5054310;28;20057;-73
2022/11/21 00:48:39;;;;;;;3.90;0.70;;;7.00;99.90;;;;;;5052895;28;20036;-73
2022/11/21 00:51:05;;;;;;;1.70;0.70;;;7.00;99.90;;;;;;5052216;28;20137;-73
2022/11/21 00:53:30;;;;;;;2.00;0.67;;;7.00;99.90;;;;;;5052885;28;20433;-73
2022/11/21 00:55:56;;;;;;;2.70;0.80;;;7.00;99.90;;;;;;5053261;28;20036;-73
2022/11/21 00:58:22;;;;;;;1.77;0.87;;;7.00;99.90;;;;;;5052721;28;20052;-73
2022/11/21 01:00:47;;;;;;;1.77;0.60;;;7.00;99.90;;;;;;5052153;28;20068;-74
2022/11/21 01:03:13;;;;;;;3.83;1.03;;;7.00;99.90;;;;;;5053965;28;20041;-73
2022/11/21 01:05:39;;;;;;;2.37;0.87;;;7.00;99.90;;;;;;5053660;28;20031;-73
2022/11/21 01:08:04;;;;;;;1.47;0.63;;;6.90;99.90;;;;;;5052050;28;20466;-73
2022/11/21 01:10:30;;;;;;;2.27;1.00;;;7.00;99.90;;;;;;5053285;28;20049;-73
2022/11/21 01:12:55;;;;;;;3.03;0.60;;;7.00;99.90;;;;;;5051895;28;20033;-73
2022/11/21 01:15:21;;;;;;;1.47;0.70;;;6.90;99.90;;;;;;5053499;28;20057;-73
2022/11/21 01:17:47;;;;;;;1.13;0.50;;;7.00;99.90;;;;;;5053303;28;20047;-74
2022/11/21 01:20:13;;;;;;;1.03;0.40;;;7.00;99.90;;;;;;5053487;28;20021;-73
2022/11/21 01:22:39;;;;;;;2.70;0.50;;;7.00;99.90;;;;;;5053308;28;20068;-73
2022/11/21 01:25:05;;;;;;;2.60;0.63;;;7.00;99.90;;;;;;5051627;28;20052;-73
2022/11/21 01:27:31;;;;;;;1.50;0.40;;;7.00;99.90;;;;;;5053490;28;20029;-74
2022/11/21 01:29:56;;;;;;;2.53;0.47;;;7.00;99.90;;;;;;5051423;28;20131;-73
2022/11/21 01:32:22;;;;;;;2.23;0.43;;;7.00;99.90;;;;;;5053107;28;20099;-74
2022/11/21 01:34:47;;;;;;;1.37;0.40;;;7.00;99.90;;;;;;5051384;28;20021;-77
2022/11/21 01:37:13;;;;;;;2.47;0.70;;;7.00;99.90;;;;;;5053613;28;20036;-73
2022/11/21 01:39:38;;;;;;;2.57;0.53;;;7.10;99.90;;;;;;5051899;28;20476;-73
2022/11/21 01:42:04;;;;;;;2.03;0.60;;;7.10;99.90;;;;;;5050844;28;20041;-73
2022/11/21 01:44:52;;;;;;;5.13;0.80;;;7.10;99.90;;;;;;5052768;28;20029;-74
2022/11/21 01:47:18;;;;;;;0.87;0.57;;;7.10;99.90;;;;;;5051980;28;20429;-73
2022/11/21 01:49:45;;;;;;;6.37;1.13;;;7.00;99.90;;;;;;5051375;28;20119;-73
2022/11/21 01:52:26;;;;;;;6.13;0.90;;;7.00;99.90;;;;;;5052103;28;20082;-73
2022/11/21 01:55:00;;;;;;;5.00;0.60;;;7.10;99.90;;;;;;5052148;28;20478;-73
2022/11/21 01:57:34;;;;;;;4.70;0.80;;;7.00;99.90;;;;;;5051558;28;20051;-73
2022/11/21 02:00:05;;;;;;;2.97;0.70;;;7.00;99.90;;;;;;5051937;28;20029;-74
2022/11/21 02:02:34;;;;;;;2.27;0.60;;;7.00;99.90;;;;;;5051563;28;20033;-73
2022/11/21 02:05:00;;;;;;;2.73;0.67;;;7.00;99.90;;;;;;5052112;28;20108;-73
2022/11/21 02:07:31;;;;;;;1.30;0.33;;;7.00;99.90;;;;;;5052477;28;20056;-73
2022/11/21 02:10:00;;;;;;;2.28;0.50;;;7.00;99.90;;;;;;5050564;28;20025;-73
2022/11/21 02:12:49;;;;;;;1.80;0.43;;;7.00;99.90;;;;;;5052875;28;20037;-72
2022/11/21 02:15:17;;;;;;;2.40;0.40;;;7.00;99.90;;;;;;5051692;28;20386;-73
2022/11/21 02:17:43;;;;;;;1.90;0.80;;;7.00;99.90;;;;;;5051393;28;20029;-73
2022/11/21 02:20:11;;;;;;;2.90;0.60;;;7.00;99.90;;;;;;5052012;28;20017;-73
2022/11/21 02:22:43;;;;;;;2.00;0.60;;;7.00;99.90;;;;;;5034851;28;20037;-73
2022/11/21 02:25:17;;;;;;;1.50;0.60;;;7.00;99.90;;;;;;5050484;28;20021;-73
2022/11/21 02:27:44;;;;;;;1.83;0.50;;;7.00;99.90;;;;;;5051161;28;20055;-73
2022/11/21 02:30:10;;;;;;;4.83;0.60;;;7.00;99.90;;;;;;5051278;28;20613;-73
2022/11/21 02:32:39;;;;;;;2.40;0.57;;;7.00;99.90;;;;;;5052720;28;20474;-73
2022/11/21 02:35:05;;;;;;;1.57;0.30;;;6.90;99.90;;;;;;5050257;28;20124;-73
2022/11/21 02:37:34;;;;;;;1.57;0.30;;;6.90;99.90;;;;;;5052316;28;20021;-73
2022/11/21 02:40:05;;;;;;;1.40;0.30;;;7.00;99.90;;;;;;5051630;28;20045;-73
2022/11/21 02:42:36;;;;;;;0.57;0.20;;;7.00;99.90;;;;;;5052430;28;20095;-73
2022/11/21 02:45:13;;;;;;;1.90;0.30;;;7.00;99.90;;;;;;5051549;28;20052;-73
2022/11/21 02:47:40;;;;;;;1.83;0.43;;;7.00;99.90;;;;;;5051806;28;20436;-73
2022/11/21 02:50:15;;;;;;;1.90;0.60;;;7.00;99.90;;;;;;5050560;28;20033;-73
2022/11/21 02:52:40;;;;;;;0.60;0.30;;;7.00;99.90;;;;;;5050993;28;20116;-73
2022/11/21 02:55:07;;;;;;;2.77;0.50;;;7.00;99.90;;;;;;5051477;28;20462;-73
2022/11/21 02:57:33;;;;;;;1.40;0.30;;;6.90;99.90;;;;;;5051195;28;20029;-73
2022/11/21 02:59:59;;;;;;;2.13;0.40;;;7.00;99.90;;;;;;5051614;28;20425;-74
2022/11/21 03:02:24;;;;;;;2.43;0.20;;;7.00;99.90;;;;;;5052811;28;20068;-73
2022/11/21 03:04:50;;;;;;;0.70;0.40;;;7.00;99.90;;;;;;5054643;28;20470;-75
2022/11/21 03:07:16;;;;;;;1.47;0.40;;;7.00;99.90;;;;;;5054682;28;20033;-73
2022/11/21 03:09:42;;;;;;;0.73;0.30;;;7.00;99.90;;;;;;5054869;28;20079;-73
2022/11/21 03:12:08;;;;;;;2.00;0.50;;;7.00;99.90;;;;;;5055452;28;20037;-74
2022/11/21 03:14:35;;;;;;;3.67;0.40;;;7.10;99.90;;;;;;5054854;28;20025;-73
2022/11/21 03:17:02;;;;;;;1.83;0.30;;;7.10;99.90;;;;;;5055352;28;20050;-73
2022/11/21 03:19:27;;;;;;;4.63;0.60;;;7.10;99.90;;;;;;5055925;28;20036;-73
2022/11/21 03:21:53;;;;;;;1.63;0.60;;;7.10;99.90;;;;;;5055340;28;20033;-75
2022/11/21 03:24:19;;;;;;;2.07;0.50;;;7.10;99.90;;;;;;5054235;28;20120;-73
2022/11/21 03:26:45;;;;;;;1.90;0.40;;;7.10;99.90;;;;;;5054517;28;20052;-73
2022/11/21 03:29:10;;;;;;;1.37;0.20;;;7.20;99.90;;;;;;5053766;28;20091;-73
2022/11/21 03:31:36;;;;;;;2.50;0.70;;;7.20;99.90;;;;;;5054492;28;20033;-73
2022/11/21 03:34:02;;;;;;;0.73;0.30;;;7.20;99.90;;;;;;5054860;28;20056;-74
2022/11/21 03:36:27;;;;;;;3.07;0.40;;;7.20;99.90;;;;;;5055566;28;20029;-73
2022/11/21 03:38:56;;;;;;;2.43;0.60;;;7.20;99.90;;;;;;5054760;28;20029;-76
2022/11/21 03:41:29;;;;;;;2.20;0.40;;;7.20;99.90;;;;;;5053831;28;20040;-73
2022/11/21 03:43:59;;;;;;;4.47;0.50;;;7.20;99.90;;;;;;5053597;28;20033;-76
2022/11/21 03:46:25;;;;;;;1.17;0.87;;;7.20;99.90;;;;;;5054304;28;20485;-73
2022/11/21 03:48:51;;;;;;;5.50;0.63;;;7.20;99.90;;;;;;5055157;28;20021;-73
2022/11/21 03:51:17;;;;;;;3.57;0.60;;;7.10;99.90;;;;;;5054418;28;20400;-73
2022/11/21 03:53:42;;;;;;;1.60;0.50;;;7.10;99.90;;;;;;5055139;28;20025;-73
2022/11/21 03:56:08;;;;;;;4.13;0.50;;;7.10;99.90;;;;;;5053250;28;20078;-73
2022/11/21 03:58:33;;;;;;;3.23;0.50;;;7.10;99.90;;;;;;5055275;28;20048;-73
2022/11/21 04:00:59;;;;;;;1.07;0.40;;;7.10;99.90;;;;;;5053170;28;20102;-73
2022/11/21 04:03:25;;;;;;;1.23;0.50;;;7.10;99.90;;;;;;5055085;28;20064;-73
2022/11/21 04:05:50;;;;;;;0.90;0.70;;;7.10;99.90;;;;;;5054981;28;20025;-73
2022/11/21 04:08:16;;;;;;;2.57;0.60;;;7.10;99.90;;;;;;5054305;28;20025;-73
2022/11/21 04:10:48;;;;;;;1.27;0.50;;;7.10;99.90;;;;;;5054622;28;20049;-73
2022/11/21 04:13:14;;;;;;;3.30;0.70;;;7.10;99.90;;;;;;5051962;28;20032;-73
2022/11/21 04:15:41;;;;;;;3.13;0.60;;;7.10;99.90;;;;;;5053149;28;20516;-73
2022/11/21 04:18:07;;;;;;;1.37;0.70;;;7.10;99.90;;;;;;5052644;28;20032;-73
2022/11/21 04:20:33;;;;;;;1.83;0.60;;;7.10;99.90;;;;;;5054697;28;20025;-73
2022/11/21 04:22:58;;;;;;;5.10;0.80;;;7.10;99.90;;;;;;5054152;28;20028;-74
2022/11/21 04:25:24;;;;;;;1.60;0.67;;;7.10;99.90;;;;;;5053190;28;20032;-73
2022/11/21 04:27:49;;;;;;;2.23;0.80;;;7.20;99.90;;;;;;5054468;28;20048;-73
2022/11/21 04:30:15;;;;;;;1.37;0.50;;;7.20;99.90;;;;;;5053885;28;20017;-73
2022/11/21 04:32:40;;;;;;;7.13;0.80;;;7.20;99.90;;;;;;5053246;28;20493;-72
2022/11/21 04:35:07;;;;;;;1.47;0.60;;;7.20;99.90;;;;;;5053785;28;20477;-73
2022/11/21 04:37:32;;;;;;;4.23;1.07;;;7.20;99.90;;;;;;5054451;28;20033;-73
2022/11/21 04:39:58;;;;;;;4.07;0.60;;;7.20;99.90;;;;;;5052476;28;20025;-77
2022/11/21 04:42:24;;;;;;;2.00;0.70;;;7.30;99.90;;;;;;5054266;28;20497;-73
2022/11/21 04:44:49;;;;;;;1.73;0.93;;;7.30;99.90;;;;;;5053029;28;20025;-73
2022/11/21 04:47:15;;;;;;;2.25;0.70;;;7.30;99.90;;;;;;5052446;28;20076;-73
2022/11/21 04:49:40;;;;;;;2.70;1.07;;;7.20;99.90;;;;;;5054422;28;20029;-73
2022/11/21 04:52:06;;;;;;;5.22;0.70;;;7.20;99.90;;;;;;5052347;28;20137;-73
2022/11/21 04:54:31;;;;;;;2.10;0.63;;;7.20;99.90;;;;;;5052862;28;20080;-73
2022/11/21 04:56:57;;;;;;;2.43;0.43;;;7.20;99.90;;;;;;5053962;28;20037;-74
2022/11/21 04:59:22;;;;;;;4.30;0.60;;;7.20;99.90;;;;;;5052166;28;20021;-73
2022/11/21 05:01:48;;;;;;;3.58;0.80;;;7.20;99.90;;;;;;5053649;28;20041;-73
2022/11/21 05:04:13;;;;;;;2.73;0.73;;;7.20;99.90;;;;;;5053292;28;20355;-73
2022/11/21 05:06:39;;;;;;;0.93;0.57;;;7.20;99.90;;;;;;5052598;28;20029;-73
2022/11/21 05:09:05;;;;;;;1.93;0.50;;;7.20;99.90;;;;;;5051766;28;20031;-73
2022/11/21 05:14:14;;;;;;;3.70;0.60;;;7.20;99.90;;;;;;5053376;28;20048;-74
2022/11/21 05:16:40;;;;;;;5.25;0.88;;;7.10;99.90;;;;;;5052443;28;20025;-73
2022/11/21 05:19:06;;;;;;;6.37;1.00;;;7.10;99.90;;;;;;5051452;28;20061;-74
2022/11/21 05:21:32;;;;;;;3.90;1.13;;;7.10;99.90;;;;;;5053649;28;20041;-73
2022/11/21 05:23:57;;;;;;;4.53;0.90;;;7.10;99.90;;;;;;5052140;28;20035;-74
2022/11/21 05:26:23;;;;;;;3.50;0.80;;;7.10;99.90;;;;;;5051792;28;20067;-73
2022/11/21 05:28:48;;;;;;;3.50;0.80;;;7.10;99.90;;;;;;5051987;28;20116;-73
2022/11/21 05:31:14;;;;;;;4.33;1.00;;;7.10;99.90;;;;;;5051254;28;20025;-74
2022/11/21 05:33:39;;;;;;;3.80;0.90;;;7.10;99.90;;;;;;5053212;28;20036;-73
2022/11/21 05:36:05;;;;;;;2.87;0.70;;;7.10;99.90;;;;;;5051140;28;20486;-74
2022/11/21 05:38:31;;;;;;;3.07;0.60;;;7.10;99.90;;;;;;5053406;28;20029;-73
2022/11/21 05:40:56;;;;;;;3.13;0.60;;;7.00;99.90;;;;;;5052352;28;20162;-73
2022/11/21 05:46:06;;;;;;;1.27;0.60;;;7.00;99.90;;;;;;5052297;28;20082;-74
2022/11/21 05:48:33;;;;;;;2.50;0.60;;;7.00;99.90;;;;;;5053333;28;20491;-73
2022/11/21 05:50:58;;;;;;;3.83;0.70;;;7.00;99.90;;;;;;5052861;28;20029;-74
2022/11/21 05:53:24;;;;;;;3.80;0.83;;;7.00;99.90;;;;;;5050920;28;20021;-73
2022/11/21 05:55:50;;;;;;;2.63;0.60;;;7.00;99.90;;;;;;5051894;28;20028;-73
2022/11/21 05:58:15;;;;;;;1.43;0.93;;;7.00;99.90;;;;;;5052320;28;20186;-73
2022/11/21 06:00:41;;;;;;;4.83;0.87;;;7.00;99.90;;;;;;5052478;28;20107;-73
2022/11/21 06:03:27;;;;;;;1.13;0.60;;;7.00;99.90;;;;;;5051114;28;20474;-73
2022/11/21 06:06:00;;;;;;;1.03;0.70;;;7.00;99.90;;;;;;5052640;28;20025;-73
2022/11/21 06:08:27;;;;;;;3.87;0.77;;;7.10;99.90;;;;;;5051143;28;20036;-73
2022/11/21 06:10:53;;;;;;;2.17;0.60;;;7.10;99.90;;;;;;5050928;28;20077;-72
2022/11/21 06:13:22;;;;;;;3.15;0.40;;;7.10;99.90;;;;;;5051586;28;20044;-73
2022/11/21 06:15:53;;;;;;;4.37;0.83;;;7.10;99.90;;;;;;5051173;28;20052;-73
2022/11/21 06:18:19;;;;;;;4.85;0.90;;;7.10;99.90;;;;;;5050447;28;20381;-73
2022/11/21 06:20:45;;;;;;;4.03;0.73;;;7.10;99.90;;;;;;5051121;28;20037;-73
2022/11/21 06:23:11;;;;;;;3.47;0.90;;;7.00;99.90;;;;;;5050443;28;20025;-73
2022/11/21 06:25:37;;;;;;;3.57;0.80;;;7.00;99.90;;;;;;5052494;28;20021;-74
2022/11/21 06:28:03;;;;;;;4.40;1.00;;;7.00;99.90;;;;;;5051905;28;20119;-75
2022/11/21 06:30:29;;;;;;;3.53;0.90;;;7.00;99.90;;;;;;5051057;28;20529;-73
2022/11/21 06:32:54;;;;;;;3.87;0.90;;;7.00;99.90;;;;;;5051296;28;20040;-73
2022/11/21 06:35:20;;;;;;;3.90;1.10;;;7.00;99.90;;;;;;5051709;28;20064;-73
2022/11/21 06:37:45;;;;;;;7.17;1.10;;;7.00;99.90;;;;;;5051689;28;20268;-73
2022/11/21 06:40:11;;;;;;;7.30;1.03;;;7.00;99.90;;;;;;5051607;28;20025;-73
2022/11/21 06:42:37;;;;;;;7.20;1.17;;;7.00;99.90;;;;;;5050662;28;20033;-73
2022/11/21 06:45:03;;;;;;;7.57;1.03;;;7.00;99.90;;;;;;5051729;28;20037;-76
2022/11/21 06:47:33;;;;;;;6.67;0.97;;;7.10;99.90;;;;;;5050425;28;20029;-73
2022/11/21 06:49:59;;;;;;;3.43;0.93;;;7.10;99.90;;;;;;5050858;28;20425;-73
2022/11/21 06:52:25;;;;;;;5.40;1.53;;;7.10;99.90;;;;;;5050110;28;20666;-73
2022/11/21 06:54:50;;;;;;;3.03;1.10;;;7.10;99.90;;;;;;5050804;28;20031;-73
2022/11/21 06:57:16;;;;;;;8.07;1.30;;;7.10;99.90;;;;;;5050165;28;20157;-73
2022/11/21 06:59:41;;;;;;;9.53;1.30;;;7.20;99.90;;;;;;5051019;28;20021;-73
2022/11/21 07:02:12;;;;;;;8.33;1.40;;;7.20;99.90;;;;;;5051301;28;20044;-74
2022/11/21 07:04:37;;;;;;;5.33;1.23;;;7.20;99.90;;;;;;5051169;28;20036;-73
2022/11/21 07:07:03;;;;;;;8.23;1.50;;;7.20;99.90;;;;;;5051880;28;20021;-74
2022/11/21 07:09:28;;;;;;;7.53;1.10;;;7.20;99.90;;;;;;5050357;28;20552;-74
2022/11/21 07:11:54;;;;;;;5.03;1.27;;;7.30;99.90;;;;;;5051568;28;20404;-74
2022/11/21 07:14:20;;;;;;;5.38;1.23;;;7.30;99.90;;;;;;5049921;28;20029;-74
2022/11/21 07:16:45;;;;;;;4.97;1.13;;;7.30;99.90;;;;;;5050676;28;20016;-73
2022/11/21 07:19:11;;;;;;;5.33;1.07;;;7.30;99.90;;;;;;5051386;28;20021;-74
2022/11/21 07:21:36;;;;;;;3.85;1.40;;;7.30;99.90;;;;;;5050821;28;20037;-73
2022/11/21 07:24:02;;;;;;;9.90;1.50;;;7.30;99.90;;;;;;5050862;28;20120;-73
2022/11/21 07:26:28;;;;;;;6.43;1.20;;;7.30;99.90;;;;;;5051589;28;20124;-73
2022/11/21 07:28:53;;;;;;;5.18;0.95;;;7.30;99.90;;;;;;5051881;28;20029;-73
2022/11/21 07:31:19;;;;;;;4.70;1.02;;;7.30;99.90;;;;;;5050109;28;20516;-73
2022/11/21 07:33:46;;;;;;;4.77;1.00;;;7.30;99.90;;;;;;5051758;28;20021;-73
2022/11/21 07:36:11;;;;;;;6.47;1.45;;;7.30;99.90;;;;;;5051173;28;20025;-73
2022/11/21 07:38:37;;;;;;;5.35;1.00;;;7.30;99.90;;;;;;5050493;28;20031;-73
2022/11/21 07:41:03;;;;;;;8.83;1.23;;;7.20;99.90;;;;;;5050240;28;20466;-72
2022/11/21 07:43:28;;;;;;;6.10;1.30;;;7.20;99.90;;;;;;5051342;28;20060;-73
2022/11/21 07:45:55;;;;;;;5.13;1.23;;;7.20;99.90;;;;;;5050612;28;20029;-73
2022/11/21 07:48:21;;;;;;;7.60;1.08;;;7.20;99.90;;;;;;5051513;28;20025;-73
2022/11/21 07:50:46;;;;;;;6.97;1.30;;;7.20;99.90;;;;;;5053810;28;20178;-72
2022/11/21 07:53:12;;;;;;;5.40;1.20;;;7.20;99.90;;;;;;5053325;28;20473;-73
2022/11/21 07:55:38;;;;;;;6.10;1.07;;;7.20;99.90;;;;;;5055135;28;20104;-73
2022/11/21 07:58:07;;;;;;;6.80;1.27;;;7.20;99.90;;;;;;5053937;28;20032;-73
2022/11/21 08:00:36;;;;;;;6.53;1.10;;;7.30;99.90;;;;;;5053490;28;20075;-73
2022/11/21 08:03:03;;;;;;;6.40;0.83;;;7.30;99.90;;;;;;5054000;28;20106;-73
2022/11/21 08:05:29;;;;;;;6.50;0.97;;;7.30;99.90;;;;;;5054846;28;20132;-73
2022/11/21 08:07:57;;;;;;;4.37;1.07;;;7.30;99.90;;;;;;5053883;28;20108;-73
2022/11/21 08:10:22;;;;;;;5.30;1.97;;;7.30;99.90;;;;;;5052915;28;20041;-74
2022/11/21 08:12:48;;;;;;;5.47;1.20;;;7.30;99.90;;;;;;5053701;28;20501;-74
2022/11/21 08:15:13;;;;;;;5.20;1.10;;;7.30;99.90;;;;;;5053934;28;20544;-74
2022/11/21 08:17:39;;;;;;;3.40;1.10;;;7.40;99.90;;;;;;5054484;28;20025;-73
2022/11/21 08:20:06;;;;;;;5.43;1.40;;;7.40;99.90;;;;;;5054605;28;20029;-74
2022/11/21 08:22:39;;;;;;;10.10;1.53;;;7.40;99.90;;;;;;5052410;28;20069;-73
2022/11/21 08:25:06;;;;;;;4.37;1.20;;;7.40;99.90;;;;;;5044873;28;20017;-73
2022/11/21 08:27:32;;;;;;;8.60;1.38;;;7.50;99.90;;;;;;5053152;28;20525;-73
2022/11/21 08:29:57;;;;;;;6.53;1.10;;;7.50;99.90;;;;;;5057352;28;20032;-73
2022/11/21 08:32:23;;;;;;;4.28;1.23;;;7.60;99.90;;;;;;5052656;28;20074;-73
2022/11/21 08:34:48;;;;;;;6.80;1.42;;;7.70;99.90;;;;;;5052972;28;20029;-73
2022/11/21 08:37:14;;;;;;;10.45;1.30;;;7.70;99.90;;;;;;5051371;28;20056;-73
2022/11/21 08:39:40;;;;;;;5.75;1.13;;;7.70;99.90;;;;;;5062293;28;20515;-73
2022/11/21 08:42:05;;;;;;;7.65;1.27;;;7.70;99.90;;;;;;5071693;28;20432;-73
2022/11/21 08:44:34;;;;;;;9.93;1.70;;;7.70;99.90;;;;;;5067709;28;20083;-73
2022/11/21 08:47:01;;;;;;;4.63;1.20;;;7.70;99.90;;;;;;5055993;28;20424;-73
2022/11/21 08:49:27;;;;;;;9.48;2.05;;;7.70;99.90;;;;;;5066863;28;20049;-73
2022/11/21 08:51:53;;;;;;;6.75;1.38;;;7.80;99.90;;;;;;5052343;28;20426;-73
2022/11/21 08:54:21;;;;;;;7.10;1.88;;;7.70;99.90;;;;;;5051255;28;20440;-74
2022/11/21 08:56:47;;;;;;;8.18;1.15;;;7.80;99.90;;;;;;5053490;28;20064;-73
2022/11/21 08:59:13;;;;;;;9.37;2.17;;;7.80;99.90;;;;;;5058212;28;20501;-74
2022/11/21 09:01:38;;;;;;;9.07;3.47;;;7.90;99.90;;;;;;5053508;28;20363;-73
2022/11/21 09:04:04;;;;;;;5.00;1.40;;;8.00;99.90;;;;;;5053351;28;20055;-74
2022/11/21 09:06:30;;;;;;;4.32;1.25;;;8.00;99.90;;;;;;5051545;28;20025;-73
2022/11/21 09:08:56;;;;;;;7.18;1.75;;;8.10;99.90;;;;;;5070000;28;20035;-74
2022/11/21 09:11:23;;;;;;;6.80;1.10;;;8.10;99.90;;;;;;5050978;28;20053;-74
2022/11/21 09:19:19;;;;;;;5.43;0.70;;;8.10;99.90;;;;;;5054154;28;20035;-73
2022/11/21 09:21:47;;;;;;;6.53;1.10;;;8.10;99.90;;;;;;5055757;28;20032;-74
2022/11/21 09:24:13;;;;;;;5.90;1.10;;;8.20;99.90;;;;;;5049569;28;20021;-74
2022/11/21 09:26:39;;;;;;;10.10;1.48;;;8.20;99.90;;;;;;5054430;28;20124;-74
2022/11/21 09:29:04;;;;;;;3.60;1.10;;;8.20;99.90;;;;;;5051693;28;20479;-73
2022/11/21 09:31:30;;;;;;;3.90;0.70;;;8.10;99.90;;;;;;5053523;28;20086;-73
2022/11/21 09:33:55;;;;;;;6.03;0.75;;;8.10;99.90;;;;;;5050419;28;20063;-74
2022/11/21 09:36:21;;;;;;;2.60;1.05;;;8.10;99.90;;;;;;5053401;28;20029;-73
2022/11/21 09:38:46;;;;;;;2.55;0.70;;;8.00;99.90;;;;;;5054171;28;20032;-74
2022/11/21 09:41:50;;;;;;;4.18;0.88;;;8.00;99.90;;;;;;5061926;28;20036;-74
2022/11/21 09:44:19;;;;;;;3.08;0.70;;;7.90;99.90;;;;;;5050016;28;20041;-74
2022/11/21 09:46:48;;;;;;;3.30;0.70;;;7.80;99.90;;;;;;5053740;28;20063;-73
2022/11/21 09:49:15;;;;;;;4.05;1.00;;;7.90;99.90;;;;;;5049354;28;20028;-74
2022/11/21 09:51:43;;;;;;;2.15;0.70;;;7.90;99.90;;;;;;5052760;28;20379;-73
2022/11/21 09:54:11;;;;;;;4.15;1.15;;;7.90;99.90;;;;;;5052427;28;20155;-74
2022/11/21 09:56:40;;;;;;;2.05;0.50;;;7.90;99.90;;;;;;5053304;28;20086;-73
2022/11/21 09:59:28;;;;;;;3.40;0.60;;;8.00;99.90;;;;;;5066502;28;20043;-74
2022/11/21 10:01:54;;;;;;;3.58;0.73;;;8.00;99.90;;;;;;5062471;28;20446;-74
2022/11/21 10:04:20;;;;;;;4.68;0.75;;;7.90;99.90;;;;;;5054357;28;20028;-77
2022/11/21 10:07:06;;;;;;;6.43;0.68;;;7.80;99.90;;;;;;5054670;28;20549;-77
2022/11/21 10:09:56;;;;;;;6.43;0.57;;;7.80;99.90;;;;;;5041667;28;20020;-76
2022/11/21 10:12:39;;;;;;;5.55;0.70;;;7.90;99.90;;;;;;5053565;28;20061;-75
2022/11/21 10:15:32;;;;;;;5.90;0.60;;;8.00;99.90;;;;;;5061278;28;20110;-75
2022/11/21 10:18:07;;;;;;;3.65;0.77;;;8.00;99.90;;;;;;5046757;28;20408;-76
2022/11/21 10:20:55;;;;;;;7.00;0.85;;;8.00;99.90;;;;;;5062236;28;20490;-77
2022/11/21 10:23:35;;;;;;;2.83;0.60;;;8.00;99.90;;;;;;5053885;28;20037;-78
2022/11/21 10:26:33;;;;;;;3.47;1.00;;;8.10;99.90;;;;;;5057358;28;20469;-75
2022/11/21 10:29:08;;;;;;;3.67;0.82;;;8.20;99.90;;;;;;5055128;28;20378;-74
2022/11/21 10:31:37;;;;;;;8.48;1.00;;;8.20;99.90;;;;;;5051689;28;20440;-75
2022/11/21 10:34:10;;;;;;;7.93;1.00;;;8.20;99.90;;;;;;5052399;28;20028;-75
2022/11/21 10:36:39;;;;;;;4.13;0.80;;;8.20;99.90;;;;;;5053979;28;20390;-75
2022/11/21 10:39:13;;;;;;;2.88;1.00;;;8.20;99.90;;;;;;5061345;28;20024;-75
2022/11/21 10:42:23;;;;;;;4.57;0.82;;;8.20;99.90;;;;;;5042276;28;20389;-75
2022/11/21 10:47:36;;;;;;;3.03;0.80;;;8.30;99.90;;;;;;5042527;28;20485;-76
2022/11/21 10:50:08;;;;;;;4.35;1.05;;;8.30;99.90;;;;;;5054213;28;20029;-76
2022/11/21 10:52:38;;;;;;;5.97;0.88;;;8.40;99.90;;;;;;5053622;28;20025;-76
2022/11/21 10:55:04;;;;;;;5.47;1.50;;;8.40;99.90;;;;;;5054435;28;20029;-75
2022/11/21 10:57:39;;;;;;;6.75;1.05;;;8.40;99.90;;;;;;5053622;28;20258;-77
2022/11/21 11:00:11;;;;;;;6.65;1.20;;;8.40;99.90;;;;;;5055470;28;20029;-78
2022/11/21 11:02:38;;;;;;;4.80;1.10;;;8.40;99.90;;;;;;5055431;28;20059;-76
2022/11/21 11:05:15;;;;;;;7.55;1.05;;;8.50;99.90;;;;;;5057533;28;20089;-77
2022/11/21 11:07:41;;;;;;;3.38;1.00;;;8.50;99.90;;;;;;5042620;28;20064;-77
2022/11/21 11:10:23;;;;;;;3.90;1.00;;;8.60;99.90;;;;;;5053923;28;20043;-75
2022/11/21 11:15:38;;;;;;;7.05;0.93;;;8.60;99.90;;;;;;5051200;28;20044;-76
2022/11/21 11:18:05;;;;;;;5.82;1.00;;;8.70;99.90;;;;;;5053601;28;20025;-76
2022/11/21 11:20:43;;;;;;;6.50;1.05;;;8.80;99.90;;;;;;5062593;28;20482;-75
2022/11/21 11:23:26;;;;;;;4.47;0.90;;;8.80;99.90;;;;;;5062013;28;20044;-77
2022/11/21 11:25:53;;;;;;;4.53;1.10;;;8.90;99.90;;;;;;5057775;28;20021;-78
2022/11/21 11:28:20;;;;;;;2.95;0.90;;;9.00;99.90;;;;;;5057099;28;20059;-78
2022/11/21 11:30:47;;;;;;;3.60;0.95;;;9.10;99.90;;;;;;5059940;28;20382;-77
2022/11/21 11:33:31;;;;;;;5.22;0.90;;;9.10;99.90;;;;;;5059440;28;20035;-75
2022/11/21 11:36:08;;;;;;;9.50;0.90;;;9.20;99.90;;;;;;5058885;28;20036;-77
2022/11/21 11:38:34;;;;;;;5.65;1.05;;;9.20;99.90;;;;;;5057083;28;20025;-77
2022/11/21 11:41:07;;;;;;;5.50;1.23;;;9.30;99.90;;;;;;5058921;28;20139;-77
2022/11/21 11:52:40;;;;;;;2.17;0.57;;;9.60;99.90;;;;;;5063629;28;20047;-77
2022/11/21 11:55:13;;;;;;;3.90;0.88;;;9.60;99.90;;;;;;5053707;28;20028;-75
2022/11/21 11:57:41;;;;;;;5.30;0.77;;;9.60;99.90;;;;;;5060964;28;20024;-75
2022/11/21 12:00:50;;;;;;;2.45;0.80;;;9.60;99.90;;;;;;5071635;28;20036;-75
2022/11/21 12:03:35;;;;;;;9.57;1.38;;;9.90;99.90;;;;;;5034838;28;20413;-76
2022/11/21 12:06:30;;;;;;;4.05;0.70;;;9.80;99.90;;;;;;5053346;28;20025;-76
2022/11/21 12:09:10;;;;;;;9.32;1.25;;;9.90;99.90;;;;;;5060178;28;20083;-75
2022/11/21 12:12:06;;;;;;;2.10;0.98;;;10.00;99.90;;;;;;5066589;28;20060;-75
2022/11/21 12:18:18;;;;;;;4.90;1.10;;;10.30;99.90;;;;;;5052413;28;20534;-77
2022/11/21 12:21:14;;;;;;;4.75;0.85;;;10.70;99.90;;;;;;5057628;28;20060;-77
2022/11/21 12:23:47;;;;;;;5.18;0.60;;;11.40;99.90;;;;;;5068123;28;20478;-78
2022/11/21 12:26:19;;;;;;;4.88;0.98;;;11.80;99.90;;;;;;5061261;28;20036;-78
2022/11/21 12:29:06;;;;;;;7.57;1.00;;;11.60;99.90;;;;;;5068993;28;20485;-74
2022/11/21 12:32:00;;;;;;;3.53;0.57;;;11.20;99.90;;;;;;5045809;28;20036;-73
2022/11/21 12:34:31;;;;;;;5.30;1.45;;;10.80;99.90;;;;;;5058506;28;20025;-75
2022/11/21 12:37:27;;;;;;;3.95;0.82;;;10.60;99.90;;;;;;5064785;28;20086;-76
2022/11/21 12:40:26;;;;;;;5.88;1.20;;;10.50;99.90;;;;;;5064369;28;20067;-76
2022/11/21 12:43:22;;;;;;;8.75;1.60;;;10.40;99.90;;;;;;5056244;28;20049;-76
2022/11/21 12:45:50;;;;;;;5.25;1.27;;;10.30;99.90;;;;;;5061342;28;20029;-76
2022/11/21 12:55:06;;;;;;;8.20;1.08;;;10.20;99.90;;;;;;5054929;28;20055;-76
2022/11/21 12:58:13;;;;;;;4.43;0.98;;;10.10;99.90;;;;;;5054071;28;20189;-76
2022/11/21 13:00:47;;;;;;;5.82;1.10;;;10.10;99.90;;;;;;5053616;28;20032;-76
2022/11/21 13:03:27;;;;;;;3.60;1.00;;;10.10;99.90;;;;;;5055236;28;20027;-77
2022/11/21 13:05:56;;;;;;;3.03;0.75;;;10.10;99.90;;;;;;5070508;28;20231;-75
2022/11/21 13:08:26;;;;;;;5.88;0.93;;;10.10;99.90;;;;;;5053130;28;20029;-74
2022/11/21 13:14:28;;;;;;;9.50;1.27;;;10.10;99.90;;;;;;5062259;28;20124;-74
2022/11/21 13:17:02;;;;;;;5.82;1.35;;;10.00;99.90;;;;;;5055441;28;20025;-76
2022/11/21 13:19:49;;;;;;;4.95;1.30;;;10.00;99.90;;;;;;5067883;28;20021;-76
2022/11/21 13:22:36;;;;;;;3.45;1.02;;;10.00;99.90;;;;;;5063466;28;20082;-76
2022/11/21 13:25:09;;;;;;;3.50;1.20;;;10.10;99.90;;;;;;5062169;28;20028;-77
2022/11/21 13:27:37;;;;;;;7.28;1.15;;;10.20;99.90;;;;;;5045621;28;20385;-77
2022/11/21 13:30:05;;;;;;;4.95;1.08;;;10.20;99.90;;;;;;5066962;28;20059;-77
2022/11/21 13:32:46;;;;;;;5.93;1.17;;;10.20;99.90;;;;;;5058829;28;20029;-76
2022/11/21 13:35:18;;;;;;;3.13;0.90;;;10.20;99.90;;;;;;5056393;28;20510;-77
2022/11/21 13:37:59;;;;;;;;;;;10.20;99.90;;;;;;5060986;28;20066;-75
2022/11/21 13:40:30;;;;;;;5.43;0.68;;;10.10;99.90;;;;;;5058118;28;19911;-75
2022/11/21 13:43:08;;;;;;;4.53;0.85;;;10.10;99.90;;;;;;5068233;28;20497;-75
2022/11/21 13:45:45;;;;;;;4.07;0.80;;;10.10;99.90;;;;;;5051322;28;20120;-76